Time;durP1;ratioP1;P1;durP2;ratioP2;P2;SDS_P1;SDS_P2;PMS_P1;PMS_P2;Temp;Humidity;BMP_temperature;BMP_pressure;BME280_temperature;BME280_humidity;BME280_pressure;Samples;Min_cycle;Max_cycle;Signal;HPM_P1;HPM_P2
2024/01/22 00:00:10;;;;;;;6.97;6.63;;;;;;;-5.22;100.00;102824.94;5045116;28;20029;-73
2024/01/22 00:02:36;;;;;;;2.03;1.95;;;;;;;-4.94;100.00;102900.31;5060940;28;20033;-72
2024/01/22 00:05:02;;;;;;;2.20;2.10;;;;;;;-4.94;100.00;102874.72;5049438;28;20500;-73
2024/01/22 00:07:28;;;;;;;4.25;4.05;;;;;;;-4.49;100.00;102936.50;5053401;28;20041;-72
2024/01/22 00:09:53;;;;;;;6.05;5.68;;;;;;;-4.56;100.00;102944.31;5056910;28;20110;-73
2024/01/22 00:12:19;;;;;;;1.88;1.75;;;;;;;-4.49;100.00;102945.09;5061906;28;20510;-72
2024/01/22 00:14:44;;;;;;;2.95;2.85;;;;;;;-5.16;100.00;102823.91;5064864;28;20039;-72
2024/01/22 00:17:10;;;;;;;0.88;0.88;;;;;;;-4.68;100.00;102891.09;5058897;28;20075;-73
2024/01/22 00:19:36;;;;;;;8.27;6.75;;;;;;;-4.49;100.00;102942.53;5062973;28;20036;-74
2024/01/22 00:22:01;;;;;;;11.98;11.38;;;;;;;-4.55;100.00;102930.75;5063996;28;20110;-72
2024/01/22 00:24:27;;;;;;;5.10;4.90;;;;;;;-5.03;100.00;102837.94;5044730;28;20504;-72
2024/01/22 00:26:52;;;;;;;6.15;5.60;;;;;;;-4.58;100.00;102925.34;5060921;28;20041;-71
2024/01/22 00:29:18;;;;;;;1.80;1.70;;;;;;;-5.21;100.00;102806.28;5065881;28;20129;-72
2024/01/22 00:31:44;;;;;;;2.40;2.30;;;;;;;-4.71;100.00;102880.53;5055644;28;21536;-73
2024/01/22 00:34:09;;;;;;;6.63;6.07;;;;;;;-4.58;100.00;102897.16;5047532;28;20045;-73
2024/01/22 00:36:35;;;;;;;27.02;21.50;;;;;;;-4.58;100.00;102920.22;5048655;28;20041;-73
2024/01/22 00:39:00;;;;;;;0.55;0.55;;;;;;;-5.27;100.00;102796.31;5050879;28;20396;-73
2024/01/22 00:41:26;;;;;;;3.28;3.05;;;;;;;-5.25;100.00;102796.47;5048248;28;20385;-72
2024/01/22 00:43:51;;;;;;;8.52;8.00;;;;;;;-4.83;100.00;102873.25;5054463;28;20486;-72
2024/01/22 00:46:17;;;;;;;0.50;0.50;;;;;;;-5.24;100.00;102777.84;5061685;28;20109;-72
2024/01/22 00:48:42;;;;;;;0.95;0.95;;;;;;;-5.21;100.00;102796.94;5048398;28;20061;-72
2024/01/22 00:51:08;;;;;;;3.88;3.67;;;;;;;-4.67;100.00;102882.66;5047867;28;20040;-72
2024/01/22 00:53:33;;;;;;;0.50;0.50;;;;;;;-5.14;100.00;102882.94;5050019;28;20197;-72
2024/01/22 00:55:59;;;;;;;6.25;2.03;;;;;;;-5.47;100.00;102763.59;5054688;28;20041;-72
2024/01/22 00:58:24;;;;;;;1.45;1.38;;;;;;;-4.65;100.00;102904.97;5052784;28;20040;-72
2024/01/22 01:00:50;;;;;;;4.55;4.32;;;;;;;-4.62;100.00;102895.91;5050696;28;20549;-72
2024/01/22 01:03:15;;;;;;;15.43;14.15;;;;;;;-5.38;100.00;102773.88;5051958;28;20106;-73
2024/01/22 01:05:41;;;;;;;14.45;13.65;;;;;;;-4.97;100.00;102864.19;5061465;28;20025;-73
2024/01/22 01:08:06;;;;;;;1.88;1.77;;;;;;;-4.76;100.00;102881.72;5061119;28;20381;-73
2024/01/22 01:10:32;;;;;;;1.33;1.27;;;;;;;-5.17;100.00;102785.38;5055190;28;20071;-74
2024/01/22 01:12:57;;;;;;;1.73;1.63;;;;;;;-5.27;100.00;102764.72;5065335;28;20052;-74
2024/01/22 01:15:24;;;;;;;0.30;0.30;;;;;;;-5.35;100.00;102758.81;5074233;28;20128;-73
2024/01/22 01:17:49;;;;;;;1.23;1.13;;;;;;;-4.71;100.00;102880.53;5064458;28;20035;-73
2024/01/22 01:20:15;;;;;;;6.85;6.43;;;;;;;-4.87;100.00;102882.28;5059155;28;20041;-73
2024/01/22 01:22:40;;;;;;;0.98;0.98;;;;;;;-5.45;100.00;102758.66;5060212;28;20044;-73
2024/01/22 01:25:06;;;;;;;4.95;4.72;;;;;;;-4.85;100.00;102849.16;5058389;28;20049;-73
2024/01/22 01:27:32;;;;;;;0.40;0.40;;;;;;;-4.90;100.00;102881.97;5065689;28;20157;-74
2024/01/22 01:29:57;;;;;;;0.50;0.50;;;;;;;-4.86;100.00;102878.97;5054981;28;20443;-73
2024/01/22 01:32:23;;;;;;;0.40;0.40;;;;;;;-5.07;100.00;102862.34;5064186;28;20119;-72
2024/01/22 01:34:48;;;;;;;5.05;4.78;;;;;;;-5.13;100.00;102877.06;5056225;28;20033;-72
2024/01/22 01:37:14;;;;;;;0.95;0.95;;;;;;;-5.85;100.00;102703.41;5073917;28;20411;-73
2024/01/22 01:39:39;;;;;;;0.40;0.40;;;;;;;-4.72;100.00;102878.72;5060509;28;20086;-72
2024/01/22 01:42:05;;;;;;;8.88;8.25;;;;;;;-4.90;100.00;102854.72;5060439;28;20067;-72
2024/01/22 01:44:39;;;;;;;1.60;1.55;;;;;;;-4.79;100.00;102889.09;5064586;28;20059;-72
2024/01/22 01:47:06;;;;;;;8.93;8.40;;;;;;;-4.83;100.00;102852.78;5057214;28;20102;-73
2024/01/22 01:49:31;;;;;;;3.75;3.50;;;;;;;-4.76;100.00;102874.03;5061843;28;20161;-71
2024/01/22 01:51:57;;;;;;;1.58;1.48;;;;;;;-5.19;100.00;102781.75;5046369;28;20044;-74
2024/01/22 01:54:26;;;;;;;0.70;0.70;;;;;;;-4.94;100.00;102870.53;5061466;28;20123;-72
2024/01/22 01:56:53;;;;;;;9.60;8.70;;;;;;;-5.47;100.00;102747.34;5059611;28;20025;-72
2024/01/22 01:59:19;;;;;;;0.88;0.88;;;;;;;-6.01;100.00;102658.41;5060481;28;20044;-73
2024/01/22 02:01:44;;;;;;;0.82;0.82;;;;;;;-5.14;100.00;102840.31;5050332;28;20115;-72
2024/01/22 02:04:10;;;;;;;19.08;17.13;;;;;;;-4.71;100.00;102874.50;5048183;28;20140;-73
2024/01/22 02:06:35;;;;;;;2.38;2.28;;;;;;;-4.92;100.00;102871.59;5050903;28;20072;-72
2024/01/22 02:09:01;;;;;;;2.15;2.05;;;;;;;-5.27;100.00;102859.38;5050845;28;20087;-73
2024/01/22 02:11:26;;;;;;;2.47;2.38;;;;;;;-5.59;100.00;102758.13;5052974;28;20465;-73
2024/01/22 02:13:53;;;;;;;41.15;31.58;;;;;;;-4.84;100.00;102859.56;5064289;28;20530;-72
2024/01/22 02:16:19;;;;;;;4.20;4.00;;;;;;;-4.75;100.00;102867.28;5059996;28;20044;-73
2024/01/22 02:18:45;;;;;;;10.98;10.48;;;;;;;-4.67;100.00;102869.84;5060512;28;20525;-72
2024/01/22 02:21:10;;;;;;;1.25;1.25;;;;;;;-4.98;100.00;102854.69;5053283;28;20068;-73
2024/01/22 02:23:36;;;;;;;7.10;5.93;;;;;;;-4.98;100.00;102844.47;5063265;28;20036;-73
2024/01/22 02:26:01;;;;;;;1.30;1.20;;;;;;;-4.89;100.00;102861.66;5057738;28;20408;-72
2024/01/22 02:28:31;;;;;;;0.93;0.93;;;;;;;-5.47;100.00;102775.50;5059074;28;20059;-73
2024/01/22 02:30:56;;;;;;;2.25;2.15;;;;;;;-5.06;100.00;102881.16;5060485;28;20410;-73
2024/01/22 02:33:22;;;;;;;7.95;7.55;;;;;;;-5.68;100.00;102781.84;5047870;28;20052;-73
2024/01/22 02:35:48;;;;;;;1.15;1.05;;;;;;;-5.19;100.00;102864.56;5058411;28;20025;-74
2024/01/22 02:38:13;;;;;;;0.88;0.85;;;;;;;-5.06;100.00;102874.38;5046950;28;20069;-73
2024/01/22 02:40:39;;;;;;;0.43;0.43;;;;;;;-5.30;100.00;102881.34;5052073;28;20041;-73
2024/01/22 02:43:04;;;;;;;0.73;0.73;;;;;;;-5.33;100.00;102873.34;5054324;28;20113;-73
2024/01/22 02:45:30;;;;;;;8.07;7.32;;;;;;;-5.40;100.00;102850.44;5052071;28;20091;-73
2024/01/22 02:47:55;;;;;;;0.63;0.60;;;;;;;-5.91;100.00;102811.03;5053146;28;20226;-72
2024/01/22 02:50:21;;;;;;;3.42;3.22;;;;;;;-6.18;100.00;102753.78;5050012;28;20507;-72
2024/01/22 02:52:46;;;;;;;7.25;6.63;;;;;;;-6.11;100.00;102755.34;5059653;28;20614;-72
2024/01/22 02:55:12;;;;;;;0.93;0.85;;;;;;;-5.69;100.00;102859.28;5049352;28;20060;-72
2024/01/22 02:57:37;;;;;;;3.22;3.03;;;;;;;-6.27;100.00;102731.47;5052855;28;20041;-73
2024/01/22 03:00:05;;;;;;;7.60;7.13;;;;;;;-6.30;100.00;102751.56;5052819;28;20036;-73
2024/01/22 03:02:31;;;;;;;1.20;1.15;;;;;;;-6.34;100.00;102745.25;5057533;28;20378;-73
2024/01/22 03:04:56;;;;;;;1.35;1.25;;;;;;;-6.26;100.00;102763.94;5057228;28;20086;-73
2024/01/22 03:07:22;;;;;;;1.08;1.02;;;;;;;-5.76;100.00;102873.06;5059385;28;20044;-72
2024/01/22 03:09:47;;;;;;;0.55;0.55;;;;;;;-6.54;100.00;102742.22;5053955;28;20044;-73
2024/01/22 03:12:13;;;;;;;2.78;2.65;;;;;;;-5.88;100.00;102854.78;5065740;28;20053;-73
2024/01/22 03:14:38;;;;;;;10.00;9.52;;;;;;;-5.99;100.00;102860.50;5057252;28;20041;-72
2024/01/22 03:17:04;;;;;;;6.57;6.28;;;;;;;-6.07;100.00;102835.75;5079331;28;20040;-72
2024/01/22 03:19:29;;;;;;;1.85;1.75;;;;;;;-6.39;100.00;102790.72;5064843;28;20049;-72
2024/01/22 03:21:55;;;;;;;45.28;41.20;;;;;;;-5.97;100.00;102857.34;5062507;28;20055;-73
2024/01/22 03:24:22;;;;;;;0.68;0.68;;;;;;;-6.68;100.00;102758.63;5061244;28;20045;-72
2024/01/22 03:26:47;;;;;;;2.78;2.58;;;;;;;-6.12;100.00;102860.81;5067228;28;20044;-73
2024/01/22 03:29:13;;;;;;;1.95;1.85;;;;;;;-6.25;100.00;102875.56;5055622;28;20415;-73
2024/01/22 03:31:39;;;;;;;0.47;0.47;;;;;;;-6.24;100.00;102864.63;5047656;28;20330;-72
2024/01/22 03:34:04;;;;;;;0.50;0.50;;;;;;;-6.24;100.00;102856.97;5051454;28;20523;-72
2024/01/22 03:36:31;;;;;;;8.13;7.72;;;;;;;-6.25;100.00;102824.47;5053333;28;20051;-72
2024/01/22 03:38:56;;;;;;;1.52;1.45;;;;;;;-6.22;100.00;102861.50;5059033;28;20544;-73
2024/01/22 03:41:22;;;;;;;2.83;2.67;;;;;;;-6.68;100.00;102758.63;5052198;28;20132;-73
2024/01/22 03:43:47;;;;;;;3.20;3.05;;;;;;;-6.87;100.00;102735.34;5053183;28;20113;-73
2024/01/22 03:46:15;;;;;;;2.22;2.10;;;;;;;-7.11;100.00;102752.38;5062808;28;20472;-73
2024/01/22 03:48:41;;;;;;;6.85;1.42;;;;;;;-6.75;100.00;102782.59;5053874;28;20107;-73
2024/01/22 03:51:07;;;;;;;3.90;3.70;;;;;;;-7.05;100.00;102744.47;5049779;28;20495;-73
2024/01/22 03:53:32;;;;;;;1.10;1.10;;;;;;;-6.94;100.00;102750.72;5052345;28;20052;-73
2024/01/22 03:55:58;;;;;;;12.27;11.40;;;;;;;-6.87;100.00;102761.75;5056150;28;20407;-73
2024/01/22 03:58:23;;;;;;;3.30;3.13;;;;;;;-6.35;100.00;102850.69;5052160;28;20681;-72
2024/01/22 04:00:49;;;;;;;4.82;4.63;;;;;;;-6.19;100.00;102866.91;5060933;28;20393;-72
2024/01/22 04:03:15;;;;;;;1.27;1.20;;;;;;;-6.24;100.00;102862.06;5059932;28;20032;-73
2024/01/22 04:05:42;;;;;;;4.75;4.53;;;;;;;-6.77;100.00;102770.41;5054954;28;20032;-74
2024/01/22 04:08:08;;;;;;;1.40;1.30;;;;;;;-6.80;100.00;102760.78;5058901;28;20059;-73
2024/01/22 04:10:35;;;;;;;1.20;1.15;;;;;;;-6.34;100.00;102841.38;5059043;28;20041;-72
2024/01/22 04:13:00;;;;;;;3.08;2.88;;;;;;;-6.91;100.00;102738.28;5062338;28;20037;-72
2024/01/22 04:15:26;;;;;;;1.92;1.83;;;;;;;-6.74;100.00;102773.28;5066385;28;20044;-72
2024/01/22 04:17:51;;;;;;;1.75;1.65;;;;;;;-6.17;100.00;102857.78;5060544;28;20469;-73
2024/01/22 04:20:17;;;;;;;4.38;4.15;;;;;;;-6.26;100.00;102835.47;5060285;28;20076;-73
2024/01/22 04:22:43;;;;;;;1.20;1.15;;;;;;;-6.93;100.00;102712.63;5061799;28;20853;-73
2024/01/22 04:25:08;;;;;;;16.85;15.50;;;;;;;-6.16;100.00;102856.13;5062697;28;20052;-72
2024/01/22 04:27:34;;;;;;;0.50;0.50;;;;;;;-6.21;100.00;102859.84;5058483;28;20548;-72
2024/01/22 04:30:00;;;;;;;1.08;1.05;;;;;;;-6.22;100.00;102868.25;5054821;28;20064;-73
2024/01/22 04:32:25;;;;;;;3.67;3.35;;;;;;;-6.55;100.00;102786.41;5062174;28;20393;-72
2024/01/22 04:34:51;;;;;;;0.47;0.47;;;;;;;-6.09;100.00;102879.03;5052212;28;20041;-73
2024/01/22 04:37:16;;;;;;;1.67;1.63;;;;;;;-7.35;100.00;102750.63;5050335;28;20068;-72
2024/01/22 04:39:42;;;;;;;10.45;9.90;;;;;;;-6.26;100.00;102872.13;5058663;28;20041;-73
2024/01/22 04:42:08;;;;;;;14.10;12.80;;;;;;;-6.99;100.00;102757.00;5048554;28;20044;-72
2024/01/22 04:44:34;;;;;;;0.40;0.40;;;;;;;-6.22;100.00;102876.81;5052540;28;20035;-73
2024/01/22 04:47:00;;;;;;;1.70;1.60;;;;;;;-6.32;100.00;102847.56;5049650;28;20045;-73
2024/01/22 04:49:25;;;;;;;3.92;3.72;;;;;;;-6.98;100.00;102762.25;5061354;28;20041;-73
2024/01/22 04:51:50;;;;;;;1.58;1.45;;;;;;;-7.11;100.00;102761.66;5048669;28;20107;-73
2024/01/22 04:54:16;;;;;;;1.85;1.75;;;;;;;-7.95;100.00;102760.94;5049255;28;20092;-72
2024/01/22 04:56:44;;;;;;;0.70;0.70;;;;;;;-7.13;100.00;102876.28;5051152;28;20067;-72
2024/01/22 04:59:10;;;;;;;0.52;0.52;;;;;;;-6.96;100.00;102898.56;5052230;28;20136;-72
2024/01/22 05:01:36;;;;;;;11.55;10.90;;;;;;;-8.21;100.00;102766.53;5042286;28;20135;-73
2024/01/22 05:04:03;;;;;;;0.45;0.45;;;;;;;-7.75;100.00;102882.91;5054921;28;20488;-73
2024/01/22 05:06:28;;;;;;;19.63;17.92;;;;;;;-7.92;100.00;102764.72;5055363;28;20834;-73
2024/01/22 05:08:54;;;;;;;6.97;6.50;;;;;;;-7.64;100.00;102806.91;5058455;28;20044;-73
2024/01/22 05:11:20;;;;;;;10.77;10.13;;;;;;;-7.73;100.00;102871.25;5057940;28;20049;-72
2024/01/22 05:13:53;;;;;;;1.75;1.65;;;;;;;-8.30;100.00;102778.22;5059260;28;20135;-73
2024/01/22 05:16:20;;;;;;;0.68;0.68;;;;;;;-7.97;100.00;102795.50;5054772;28;20060;-71
2024/01/22 05:18:47;;;;;;;5.68;4.43;;;;;;;-6.93;100.00;102893.81;5065873;28;20044;-73
2024/01/22 05:21:13;;;;;;;16.27;15.57;;;;;;;-7.56;100.00;102901.19;5055142;28;20037;-73
2024/01/22 05:23:40;;;;;;;0.40;0.40;;;;;;;-8.41;100.00;102765.94;5063871;28;20020;-72
2024/01/22 05:26:06;;;;;;;8.60;8.18;;;;;;;-7.48;100.00;102895.31;5058457;28;20109;-73
2024/01/22 05:28:32;;;;;;;3.80;3.60;;;;;;;-7.72;100.00;102773.69;5059426;28;20045;-73
2024/01/22 05:30:57;;;;;;;1.00;1.00;;;;;;;-7.13;100.00;102911.09;5040316;28;20488;-72
2024/01/22 05:33:23;;;;;;;12.48;11.82;;;;;;;-8.60;100.00;102707.88;5052926;28;20881;-72
2024/01/22 05:35:48;;;;;;;0.77;0.77;;;;;;;-7.61;100.00;102890.47;5046991;28;20037;-73
2024/01/22 05:38:14;;;;;;;5.43;5.18;;;;;;;-7.49;100.00;102848.53;5047093;28;20067;-72
2024/01/22 05:40:40;;;;;;;0.50;0.50;;;;;;;-7.07;100.00;102888.81;5046560;28;20138;-73
2024/01/22 05:43:05;;;;;;;0.40;0.40;;;;;;;-7.06;100.00;102899.19;5058583;28;20139;-73
2024/01/22 05:45:31;;;;;;;0.70;0.70;;;;;;;-8.03;100.00;102825.38;5048346;28;20473;-73
2024/01/22 05:47:57;;;;;;;0.88;0.88;;;;;;;-9.02;100.00;102665.72;5046671;28;20528;-73
2024/01/22 05:50:23;;;;;;;28.45;26.70;;;;;;;-8.11;100.00;102796.50;5046765;28;20045;-72
2024/01/22 05:52:48;;;;;;;5.88;5.55;;;;;;;-7.27;100.00;102886.59;5055651;28;20043;-73
2024/01/22 05:55:14;;;;;;;8.57;8.05;;;;;;;-7.05;100.00;102901.03;5045811;28;20424;-73
2024/01/22 05:57:39;;;;;;;1.13;1.02;;;;;;;-7.73;100.00;102817.72;5047367;28;20516;-72
2024/01/22 06:00:09;;;;;;;5.75;5.40;;;;;;;-7.73;100.00;102861.94;5042012;28;20049;-72
2024/01/22 06:02:35;;;;;;;6.35;6.05;;;;;;;-7.96;100.00;102810.03;5049109;28;20033;-73
2024/01/22 06:05:02;;;;;;;4.88;4.53;;;;;;;-7.73;100.00;102831.38;5050475;28;20095;-74
2024/01/22 06:07:27;;;;;;;15.15;14.13;;;;;;;-7.13;100.00;102883.03;5054843;28;20094;-71
2024/01/22 06:09:53;;;;;;;1.52;1.42;;;;;;;-7.71;100.00;102745.81;5050326;28;20045;-72
2024/01/22 06:12:18;;;;;;;4.30;4.10;;;;;;;-7.30;100.00;102776.63;5060465;28;20110;-73
2024/01/22 06:14:44;;;;;;;2.88;2.70;;;;;;;-6.77;100.00;102858.09;5059319;28;20124;-73
2024/01/22 06:17:09;;;;;;;12.60;11.80;;;;;;;-6.78;100.00;102878.34;5056295;28;20041;-73
2024/01/22 06:19:35;;;;;;;1.05;1.05;;;;;;;-7.57;100.00;102719.28;5055393;28;20492;-73
2024/01/22 06:22:01;;;;;;;41.30;30.38;;;;;;;-6.72;100.00;102876.47;5059895;28;20052;-72
2024/01/22 06:24:27;;;;;;;2.15;2.05;;;;;;;-6.40;100.00;102902.94;5058633;28;20124;-74
2024/01/22 06:26:52;;;;;;;10.25;7.88;;;;;;;-6.34;100.00;102892.47;5050858;28;20075;-73
2024/01/22 06:29:18;;;;;;;16.35;15.30;;;;;;;-6.73;100.00;102796.41;5057508;28;20094;-73
2024/01/22 06:31:44;;;;;;;2.80;1.83;;;;;;;-6.78;100.00;102784.81;5056312;28;20081;-73
2024/01/22 06:34:11;;;;;;;0.85;0.85;;;;;;;-6.07;100.00;102903.09;5050421;28;20064;-72
2024/01/22 06:36:39;;;;;;;0.98;0.95;;;;;;;-5.91;100.00;102881.69;5052511;28;20477;-72
2024/01/22 06:39:08;;;;;;;0.52;0.52;;;;;;;-5.82;100.00;102883.56;5049260;28;20500;-73
2024/01/22 06:41:34;;;;;;;0.50;0.50;;;;;;;-6.56;100.00;102743.72;5053853;28;20024;-73
2024/01/22 06:43:59;;;;;;;0.90;0.90;;;;;;;-5.88;100.00;102889.69;5049122;28;20057;-72
2024/01/22 06:46:25;;;;;;;16.90;15.70;;;;;;;-6.61;100.00;102740.66;5050756;28;20045;-74
2024/01/22 06:48:50;;;;;;;4.47;4.28;;;;;;;-6.00;100.00;102815.22;5051781;28;20052;-73
2024/01/22 06:51:16;;;;;;;1.27;1.25;;;;;;;-5.59;100.00;102886.00;5047087;28;20136;-73
2024/01/22 06:53:42;;;;;;;0.55;0.55;;;;;;;-5.64;100.00;102892.28;5055585;28;20036;-73
2024/01/22 06:56:08;;;;;;;5.93;4.53;;;;;;;-5.64;100.00;102865.78;5046843;28;20115;-73
2024/01/22 06:58:34;;;;;;;0.88;0.88;;;;;;;-5.64;100.00;102855.56;5048269;28;20053;-72
2024/01/22 07:01:00;;;;;;;0.50;0.50;;;;;;;-6.07;100.00;102767.66;5046228;28;20037;-72
2024/01/22 07:03:26;;;;;;;1.85;1.75;;;;;;;-5.78;100.00;102874.59;5047620;28;20049;-73
2024/01/22 07:05:52;;;;;;;9.98;9.52;;;;;;;-6.20;100.00;102751.81;5052659;28;20108;-73
2024/01/22 07:08:18;;;;;;;1.35;0.75;;;;;;;-5.81;100.00;102811.22;5054011;28;20045;-73
2024/01/22 07:10:44;;;;;;;6.25;5.95;;;;;;;-5.77;100.00;102895.19;5053801;28;20048;-72
2024/01/22 07:13:09;;;;;;;3.60;3.40;;;;;;;-5.41;100.00;102899.81;5057306;28;20056;-72
2024/01/22 07:15:35;;;;;;;0.98;0.98;;;;;;;-5.78;100.00;102785.13;5064409;28;20503;-73
2024/01/22 07:18:00;;;;;;;0.73;0.73;;;;;;;-5.08;100.00;102886.13;5046163;28;20037;-74
2024/01/22 07:20:26;;;;;;;2.35;2.25;;;;;;;-5.03;100.00;102905.44;5046561;28;20033;-73
2024/01/22 07:22:53;;;;;;;1.85;1.75;;;;;;;-5.07;100.00;102858.88;5053222;28;20056;-72
2024/01/22 07:25:19;;;;;;;4.63;4.43;;;;;;;-5.55;100.00;102767.94;5053139;28;20046;-72
2024/01/22 07:27:45;;;;;;;7.90;7.53;;;;;;;-4.81;100.00;102884.56;5068425;28;20127;-72
2024/01/22 07:30:13;;;;;;;1.00;1.00;;;;;;;-5.35;100.00;102786.97;5056896;28;20345;-73
2024/01/22 07:32:41;;;;;;;1.40;1.30;;;;;;;-5.75;100.00;102767.53;5048369;28;20614;-73
2024/01/22 07:35:13;;;;;;;0.40;0.40;;;;;;;-5.57;100.00;102897.28;5050298;28;20052;-73
2024/01/22 07:37:44;;;;;;;0.43;0.40;;;;;;;-5.70;100.00;102816.59;5049024;28;20125;-73
2024/01/22 07:40:11;;;;;;;1.45;1.35;;;;;;;-5.99;100.00;102837.50;5052807;28;20041;-72
2024/01/22 07:42:38;;;;;;;2.38;1.67;;;;;;;-5.62;100.00;102865.22;5053936;28;20039;-74
2024/01/22 07:45:06;;;;;;;2.35;2.25;;;;;;;-4.95;100.00;102889.19;5049653;28;20041;-73
2024/01/22 07:47:32;;;;;;;1.02;1.02;;;;;;;-5.18;100.00;102769.09;5051766;28;20084;-73
2024/01/22 07:49:59;;;;;;;1.50;1.42;;;;;;;-4.78;100.00;102819.19;5049364;28;20080;-73
2024/01/22 07:52:25;;;;;;;0.73;0.73;;;;;;;-5.00;100.00;102862.22;5051702;28;20154;-73
2024/01/22 07:54:50;;;;;;;4.45;4.07;;;;;;;-4.58;100.00;102885.25;5051365;28;20494;-72
2024/01/22 07:57:16;;;;;;;12.43;11.50;;;;;;;-4.78;100.00;102877.19;5049130;28;20036;-73
2024/01/22 07:59:42;;;;;;;8.48;7.95;;;;;;;-4.62;100.00;102871.97;5050030;28;20052;-74
2024/01/22 08:02:08;;;;;;;3.60;3.45;;;;;;;-5.41;100.00;102865.63;5056699;28;20041;-74
2024/01/22 08:04:34;;;;;;;41.80;29.58;;;;;;;-4.75;100.00;102905.69;5057993;28;20818;-72
2024/01/22 08:07:00;;;;;;;3.58;3.42;;;;;;;-4.74;100.00;102839.25;5057137;28;20591;-73
2024/01/22 08:09:35;;;;;;;21.52;19.77;;;;;;;-4.75;100.00;102809.28;5056888;28;20040;-72
2024/01/22 08:12:03;;;;;;;0.85;0.85;;;;;;;-4.56;100.00;102800.88;5062206;28;20028;-72
2024/01/22 08:14:30;;;;;;;4.47;4.28;;;;;;;-4.36;100.00;102862.66;5058588;28;20039;-72
2024/01/22 08:16:56;;;;;;;1.75;1.65;;;;;;;-4.72;100.00;102793.31;5060846;28;20399;-73
2024/01/22 08:19:22;;;;;;;1.25;1.15;;;;;;;-4.47;100.00;102883.78;5060652;28;20045;-72
2024/01/22 08:21:47;;;;;;;4.93;4.72;;;;;;;-4.74;100.00;102808.50;5060391;28;20044;-72
2024/01/22 08:24:13;;;;;;;16.42;15.57;;;;;;;-4.15;100.00;102880.94;5059019;28;20477;-73
2024/01/22 08:26:38;;;;;;;0.68;0.68;;;;;;;-4.36;100.00;102872.00;5057977;28;20097;-73
2024/01/22 08:29:05;;;;;;;6.30;5.97;;;;;;;-4.26;100.00;102793.66;5059252;28;20087;-74
2024/01/22 08:31:30;;;;;;;1.58;1.48;;;;;;;-3.66;100.00;102891.78;5054287;28;20044;-72
2024/01/22 08:33:56;;;;;;;1.05;1.05;;;;;;;-3.53;100.00;102883.63;5049130;28;20075;-73
2024/01/22 08:36:22;;;;;;;2.45;2.35;;;;;;;-3.49;100.00;102884.81;5048645;28;20619;-73
2024/01/22 08:38:48;;;;;;;6.25;5.95;;;;;;;-4.19;100.00;102804.47;5051484;28;20029;-73
2024/01/22 08:41:13;;;;;;;13.98;12.98;;;;;;;-3.64;100.00;102876.53;5051584;28;20902;-72
2024/01/22 08:43:39;;;;;;;5.03;4.82;;;;;;;-3.41;100.00;102891.59;5053643;28;20050;-74
2024/01/22 08:46:04;;;;;;;13.82;12.55;;;;;;;-3.19;100.00;102890.31;5051405;28;20476;-73
2024/01/22 08:48:30;;;;;;;1.30;1.20;;;;;;;-3.05;100.00;102890.72;5063674;28;20524;-74
2024/01/22 08:50:56;;;;;;;4.57;4.28;;;;;;;-3.84;100.00;102770.38;5054934;28;20119;-73
2024/01/22 08:53:22;;;;;;;8.82;8.30;;;;;;;-3.44;100.00;102850.25;5050110;28;20136;-72
2024/01/22 08:55:48;;;;;;;1.38;1.27;;;;;;;-3.11;100.00;102875.66;5048191;28;20144;-72
2024/01/22 08:58:15;;;;;;;1.42;1.33;;;;;;;-3.17;100.00;102877.63;5049964;28;20128;-72
2024/01/22 09:00:40;;;;;;;69.18;29.42;;;;;;;-3.03;100.00;102868.66;5049245;28;20797;-73
2024/01/22 09:03:06;;;;;;;0.70;0.70;;;;;;;-3.43;100.00;102772.47;5047918;28;20037;-73
2024/01/22 09:05:34;;;;;;;1.65;1.55;;;;;;;-3.96;100.00;102748.66;5056256;28;20024;-73
2024/01/22 09:08:00;;;;;;;1.50;1.40;;;;;;;-3.68;100.00;102770.13;5045062;28;20041;-73
2024/01/22 09:10:26;;;;;;;22.73;21.25;;;;;;;-3.40;100.00;102884.03;5045485;28;20148;-73
2024/01/22 09:12:54;;;;;;;21.00;19.73;;;;;;;-3.31;100.00;102878.88;5063398;28;20453;-74
2024/01/22 09:15:20;;;;;;;0.30;0.30;;;;;;;-2.97;100.00;102887.22;5058886;28;20151;-73
2024/01/22 09:17:46;;;;;;;12.05;11.20;;;;;;;-3.22;100.00;102886.56;5060745;28;20078;-72
2024/01/22 09:20:12;;;;;;;7.20;6.78;;;;;;;-3.66;100.00;102775.44;5059642;28;20037;-73
2024/01/22 09:22:38;;;;;;;30.42;18.75;;;;;;;-3.72;100.00;102765.50;5057434;28;20191;-72
2024/01/22 09:25:05;;;;;;;2.47;2.38;;;;;;;-3.88;100.00;102764.78;5057659;28;20734;-73
2024/01/22 09:27:31;;;;;;;0.50;0.50;;;;;;;-3.15;100.00;102858.13;5074476;28;20123;-73
2024/01/22 09:29:56;;;;;;;13.55;10.63;;;;;;;-3.83;100.00;102861.03;5056623;28;20040;-72
2024/01/22 09:32:22;;;;;;;1.73;1.63;;;;;;;-3.31;100.00;102870.28;5054612;28;20041;-72
2024/01/22 09:34:48;;;;;;;11.57;10.73;;;;;;;-3.06;100.00;102824.72;5051616;28;20587;-73
2024/01/22 09:37:14;;;;;;;4.53;4.22;;;;;;;-3.00;100.00;102849.31;5051430;28;20045;-73
2024/01/22 09:39:40;;;;;;;1.23;0.93;;;;;;;-3.20;100.00;102814.06;5048465;28;20052;-73
2024/01/22 09:42:06;;;;;;;7.15;6.72;;;;;;;-2.59;100.00;102862.53;5048236;28;20040;-73
2024/01/22 09:44:33;;;;;;;2.33;2.25;;;;;;;-2.46;100.00;102871.38;5053080;28;20040;-73
2024/01/22 09:47:00;;;;;;;9.75;9.07;;;;;;;-3.06;100.00;102787.09;5052723;28;20143;-73
2024/01/22 09:49:26;;;;;;;7.68;7.25;;;;;;;-3.49;100.00;102708.66;5058786;28;20068;-73
2024/01/22 09:51:52;;;;;;;0.63;0.63;;;;;;;-3.38;100.00;102735.31;5053351;28;20520;-73
2024/01/22 09:54:18;;;;;;;1.65;1.55;;;;;;;-2.88;100.00;102858.91;5051380;28;20048;-72
2024/01/22 09:56:55;;;;;;;0.95;0.95;;;;;;;-2.91;100.00;102828.72;5052724;28;20461;-73
2024/01/22 09:59:22;;;;;;;1.50;1.45;;;;;;;-2.88;100.00;102836.72;5047720;28;20136;-73
2024/01/22 10:01:49;;;;;;;0.98;0.98;;;;;;;-2.69;100.00;102818.78;5045324;28;20033;-73
2024/01/22 10:04:16;;;;;;;3.00;2.90;;;;;;;-2.61;100.00;102846.06;5050311;28;20489;-74
2024/01/22 10:06:43;;;;;;;15.45;14.07;;;;;;;-2.67;100.00;102817.25;5051361;28;20041;-73
2024/01/22 10:09:09;;;;;;;2.05;1.95;;;;;;;-3.27;100.00;102786.00;5052601;28;20078;-73
2024/01/22 10:11:35;;;;;;;5.30;5.03;;;;;;;-3.25;100.00;102715.16;5054307;28;20024;-73
2024/01/22 10:14:01;;;;;;;1.67;1.58;;;;;;;-2.87;100.00;102751.19;5060464;28;20076;-73
2024/01/22 10:16:28;;;;;;;2.45;2.35;;;;;;;-2.70;100.00;102814.38;5060864;28;20057;-73
2024/01/22 10:19:00;;;;;;;2.28;2.17;;;;;;;-2.56;100.00;102831.06;5068724;28;20580;-73
2024/01/22 10:21:26;;;;;;;7.10;6.63;;;;;;;-2.87;100.00;102838.53;5057475;28;20045;-74
2024/01/22 10:24:10;;;;;;;4.57;4.35;;;;;;;-3.16;100.00;102727.03;5064920;28;20112;-73
2024/01/22 10:26:36;;;;;;;2.25;2.15;;;;;;;-2.57;100.00;102824.16;5057104;28;20040;-73
2024/01/22 10:29:29;;;;;;;8.13;5.47;;;;;;;-2.32;100.00;102834.97;5059552;28;20065;-74
2024/01/22 10:31:59;;;;;;;6.50;6.20;;;;;;;-2.78;100.00;102818.81;5051522;28;20124;-72
2024/01/22 10:34:30;;;;;;;1.35;1.27;;;;;;;-3.39;100.00;102705.28;5047094;28;20053;-72
2024/01/22 10:37:12;;;;;;;7.15;6.80;;;;;;;-2.25;100.00;102821.00;5048966;28;20128;-72
2024/01/22 10:39:42;;;;;;;3.83;3.63;;;;;;;-2.63;100.00;102762.78;5042393;28;20041;-73
2024/01/22 10:42:11;;;;;;;7.53;7.10;;;;;;;-2.33;100.00;102818.66;5047180;28;20098;-73
2024/01/22 10:44:47;;;;;;;2.65;2.55;;;;;;;-2.68;100.00;102789.75;5052369;28;20111;-73
2024/01/22 10:47:16;;;;;;;0.57;0.57;;;;;;;-2.04;100.00;102812.66;5059477;28;20048;-72
2024/01/22 10:49:43;;;;;;;7.13;6.63;;;;;;;-2.53;100.00;102802.19;5054284;28;20045;-73
2024/01/22 10:52:09;;;;;;;1.88;1.77;;;;;;;-2.41;100.00;102696.25;5053648;28;20151;-73
2024/01/22 10:54:36;;;;;;;4.70;4.50;;;;;;;-1.60;100.00;102673.25;5045424;28;20449;-72
2024/01/22 10:57:05;;;;;;;7.63;7.10;;;;;;;-1.39;100.00;102782.31;5038741;28;20568;-74
2024/01/22 10:59:39;;;;;;;4.82;4.63;;;;;;;-0.76;100.00;102757.63;5064494;28;20033;-73
2024/01/22 11:02:06;;;;;;;0.60;0.60;;;;;;;-0.36;100.00;102760.03;5048590;28;20037;-73
2024/01/22 11:04:46;;;;;;;0.30;0.30;;;;;;;-0.70;100.00;102747.84;5057011;28;20535;-73
2024/01/22 11:07:12;;;;;;;11.57;7.28;;;;;;;-1.19;100.00;102627.81;5050987;28;20041;-72
2024/01/22 11:09:39;;;;;;;2.80;2.60;;;;;;;-0.12;100.00;102725.91;5056102;28;20064;-72